createdAt,value
2022-07-31T00:02:57.940Z,4.10
2022-07-31T00:08:59.685Z,4.07
2022-07-31T00:15:04.126Z,4.15
2022-07-31T00:21:07.462Z,4.40
2022-07-31T00:27:10.837Z,5.20
2022-07-31T00:33:12.641Z,4.70
2022-07-31T00:39:14.974Z,5.25
2022-07-31T00:45:16.699Z,4.60
2022-07-31T00:51:23.974Z,4.97
2022-07-31T00:57:25.892Z,5.00
2022-07-31T01:03:27.725Z,4.55
2022-07-31T01:09:29.681Z,5.15
2022-07-31T01:15:31.968Z,4.80
2022-07-31T01:21:39.829Z,5.10
2022-07-31T01:27:58.355Z,5.55
2022-07-31T01:34:24.469Z,4.95
2022-07-31T01:40:37.717Z,5.78
2022-07-31T01:46:41.503Z,5.67
2022-07-31T01:58:47.505Z,6.35
2022-07-31T02:04:50.042Z,6.65
2022-07-31T02:10:53.093Z,6.40
2022-07-31T02:16:55.532Z,6.15
2022-07-31T02:22:58.615Z,6.65
2022-07-31T02:29:01.156Z,7.13
2022-07-31T02:35:04.449Z,7.38
2022-07-31T02:41:07.294Z,7.30
2022-07-31T02:47:09.298Z,6.95
2022-07-31T02:53:11.484Z,7.78
2022-07-31T02:59:13.244Z,8.02
2022-07-31T03:05:15.740Z,8.00
2022-07-31T03:11:17.944Z,7.28
2022-07-31T03:17:20.392Z,7.60
2022-07-31T03:23:25.300Z,7.93
2022-07-31T03:29:41.839Z,7.80
2022-07-31T03:35:45.596Z,8.10
2022-07-31T03:41:48.253Z,7.78
2022-07-31T03:47:50.136Z,8.90
2022-07-31T03:53:52.061Z,8.15
2022-07-31T03:59:57.691Z,7.78
2022-07-31T04:06:00.255Z,8.88
2022-07-31T04:12:02.473Z,8.38
2022-07-31T04:18:04.406Z,8.35
2022-07-31T04:24:06.680Z,7.72
2022-07-31T04:30:09.408Z,7.65
2022-07-31T04:36:29.845Z,8.25
2022-07-31T04:42:32.852Z,8.43
2022-07-31T04:48:35.803Z,8.57
2022-07-31T04:54:43.496Z,8.93
2022-07-31T05:00:45.214Z,7.68
2022-07-31T05:06:48.912Z,7.57
2022-07-31T05:12:50.667Z,7.88
2022-07-31T05:18:52.424Z,8.05
2022-07-31T05:24:54.603Z,8.07
2022-07-31T05:30:56.337Z,7.35
2022-07-31T05:37:01.882Z,7.00
2022-07-31T05:43:03.843Z,7.63
2022-07-31T05:49:05.647Z,7.70
2022-07-31T05:55:07.846Z,8.18
2022-07-31T06:01:09.570Z,7.00
2022-07-31T06:07:11.284Z,6.60
2022-07-31T06:13:14.746Z,6.63
2022-07-31T06:19:16.729Z,7.70
2022-07-31T06:25:18.639Z,8.35
2022-07-31T06:31:22.600Z,8.30
2022-07-31T06:37:24.363Z,7.93
2022-07-31T06:43:26.041Z,7.18
2022-07-31T06:49:28.292Z,6.55
2022-07-31T06:55:31.202Z,6.00
2022-07-31T07:01:33.772Z,5.00
2022-07-31T07:07:36.664Z,4.00
2022-07-31T07:13:46.428Z,3.72
2022-07-31T07:19:49.616Z,3.83
2022-07-31T07:25:56.897Z,3.45
2022-07-31T07:31:59.913Z,3.08
2022-07-31T07:38:01.737Z,3.20
2022-07-31T07:44:03.572Z,2.80
2022-07-31T07:50:09.813Z,2.88
2022-07-31T07:56:11.681Z,2.25
2022-07-31T08:02:13.868Z,1.90
2022-07-31T08:08:15.591Z,2.50
2022-07-31T08:14:17.462Z,1.98
2022-07-31T08:20:19.256Z,1.67
2022-07-31T08:26:21.077Z,2.00
2022-07-31T08:32:26.844Z,1.70
2022-07-31T08:38:28.998Z,1.52
2022-07-31T08:44:30.994Z,1.67
2022-07-31T08:50:36.000Z,2.10
2022-07-31T08:56:38.751Z,1.75
2022-07-31T09:02:40.775Z,1.77
2022-07-31T09:08:42.487Z,1.70
2022-07-31T09:14:48.456Z,1.80
2022-07-31T09:21:05.808Z,1.80
2022-07-31T09:27:10.111Z,1.98
2022-07-31T09:33:16.779Z,1.80
2022-07-31T09:39:20.512Z,1.80
2022-07-31T09:45:28.706Z,1.80
2022-07-31T09:51:42.062Z,2.20
2022-07-31T09:57:58.397Z,1.95
2022-07-31T10:04:01.581Z,2.03
2022-07-31T10:10:06.928Z,1.95
2022-07-31T10:16:09.342Z,1.90
2022-07-31T10:22:17.579Z,1.77
2022-07-31T10:28:20.322Z,1.95
2022-07-31T10:34:22.705Z,1.88
2022-07-31T10:40:49.138Z,1.90
2022-07-31T10:46:50.998Z,1.98
2022-07-31T10:52:57.278Z,1.60
2022-07-31T10:59:02.208Z,1.75
2022-07-31T11:05:23.591Z,1.70
2022-07-31T11:11:32.959Z,1.63
2022-07-31T11:18:25.090Z,1.90
2022-07-31T11:24:03.945Z,1.90
2022-07-31T11:30:13.169Z,2.28
2022-07-31T11:36:16.623Z,1.95
2022-07-31T11:42:20.146Z,2.10
2022-07-31T11:48:35.573Z,2.38
2022-07-31T11:54:42.207Z,1.93
2022-07-31T12:00:51.694Z,2.30
2022-07-31T12:06:57.196Z,2.10
2022-07-31T12:12:59.063Z,2.05
2022-07-31T12:19:00.868Z,2.15
2022-07-31T12:25:07.272Z,2.42
2022-07-31T12:31:10.695Z,2.40
2022-07-31T12:37:19.067Z,2.85
2022-07-31T12:43:24.717Z,2.13
2022-07-31T12:49:26.703Z,2.70
2022-07-31T12:55:30.310Z,2.60
2022-07-31T13:01:33.274Z,2.42
2022-07-31T13:07:35.016Z,2.60
2022-07-31T13:13:36.832Z,2.35
2022-07-31T13:19:38.517Z,2.28
2022-07-31T13:25:40.292Z,1.90
2022-07-31T13:31:42.142Z,1.70
2022-07-31T13:37:44.087Z,1.50
2022-07-31T13:43:59.774Z,1.23
2022-07-31T13:50:02.581Z,1.35
2022-07-31T13:56:05.104Z,1.40
2022-07-31T14:02:07.459Z,1.90
2022-07-31T14:08:32.831Z,1.88
2022-07-31T14:14:31.005Z,1.50
2022-07-31T14:20:34.355Z,1.55
2022-07-31T14:26:36.129Z,1.58
2022-07-31T14:32:38.202Z,1.70
2022-07-31T14:38:39.972Z,1.65
2022-07-31T14:44:42.413Z,1.50
2022-07-31T14:50:45.347Z,1.63
2022-07-31T14:57:01.256Z,1.70
2022-07-31T15:03:03.480Z,1.90
2022-07-31T15:09:05.650Z,2.20
2022-07-31T15:15:08.549Z,3.10
2022-07-31T15:21:17.732Z,3.73
2022-07-31T15:27:21.993Z,3.47
2022-07-31T15:33:25.953Z,3.33
2022-07-31T15:39:28.678Z,3.83
2022-07-31T15:45:30.522Z,3.93
2022-07-31T15:51:32.458Z,3.70
2022-07-31T15:57:34.450Z,4.18
2022-07-31T16:03:51.063Z,4.28
2022-07-31T16:10:03.399Z,3.78
2022-07-31T16:16:17.381Z,4.03
2022-07-31T16:22:19.127Z,4.22
2022-07-31T16:28:21.026Z,4.20
2022-07-31T16:34:22.797Z,4.00
2022-07-31T16:40:30.538Z,3.60
2022-07-31T16:46:33.347Z,3.72
2022-07-31T16:52:35.183Z,3.53
2022-07-31T16:58:36.958Z,3.40
2022-07-31T17:04:38.731Z,3.05
2022-07-31T17:10:40.681Z,3.40
2022-07-31T17:16:47.045Z,3.50
2022-07-31T17:22:57.431Z,3.50
2022-07-31T17:28:59.196Z,3.20
2022-07-31T17:35:01.104Z,3.20
2022-07-31T17:41:03.391Z,2.47
2022-07-31T17:47:08.058Z,2.70
2022-07-31T17:53:10.285Z,2.75
2022-07-31T17:59:15.772Z,2.92
2022-07-31T18:05:17.589Z,3.30
2022-07-31T18:11:19.870Z,2.97
2022-07-31T18:17:21.736Z,2.90
2022-07-31T18:23:29.419Z,3.47
2022-07-31T18:29:34.016Z,3.85
2022-07-31T18:35:35.726Z,4.78
2022-07-31T18:41:38.534Z,6.80
2022-07-31T18:47:40.347Z,7.17
2022-07-31T18:53:42.047Z,7.50
2022-07-31T18:59:43.759Z,6.05
2022-07-31T19:05:46.389Z,6.63
2022-07-31T19:11:50.680Z,5.68
2022-07-31T19:17:54.865Z,4.95
2022-07-31T19:24:03.769Z,4.90
2022-07-31T19:30:08.057Z,5.70
2022-07-31T19:36:10.879Z,5.82
2022-07-31T19:42:12.683Z,5.93
2022-07-31T19:48:15.045Z,6.25
2022-07-31T19:54:16.819Z,6.60
2022-07-31T20:00:18.554Z,6.78
2022-07-31T20:06:20.997Z,7.43
2022-07-31T20:12:22.866Z,7.18
2022-07-31T20:18:28.799Z,7.38
2022-07-31T20:24:31.076Z,8.05
2022-07-31T20:30:32.771Z,8.05
2022-07-31T20:36:34.549Z,8.57
2022-07-31T20:42:38.253Z,7.32
2022-07-31T20:48:40.030Z,7.28
2022-07-31T20:54:41.741Z,7.32
2022-07-31T21:00:45.307Z,7.85
2022-07-31T21:06:47.052Z,6.40
2022-07-31T21:12:48.743Z,6.40
2022-07-31T21:18:52.639Z,6.00
2022-07-31T21:30:56.821Z,5.93
2022-07-31T21:37:00.033Z,5.25
2022-07-31T21:43:02.587Z,5.28
2022-07-31T21:49:05.148Z,5.57
2022-07-31T21:55:07.280Z,5.78
2022-07-31T22:01:11.690Z,5.15
2022-07-31T22:07:31.973Z,6.35
2022-07-31T22:13:33.926Z,6.65
2022-07-31T22:19:35.927Z,7.03
2022-07-31T22:25:48.338Z,7.78
2022-07-31T22:37:55.731Z,7.90
2022-07-31T22:44:13.077Z,6.90
2022-07-31T22:50:18.105Z,7.00
2022-07-31T22:56:20.211Z,8.13
2022-07-31T23:02:22.034Z,7.50
2022-07-31T23:08:23.809Z,8.30
2022-07-31T23:14:25.909Z,8.38
2022-07-31T23:20:27.751Z,8.30
2022-07-31T23:26:29.819Z,8.38
2022-07-31T23:32:31.578Z,8.65
2022-07-31T23:38:33.336Z,8.73
2022-07-31T23:44:39.979Z,7.97
2022-07-31T23:50:44.494Z,6.13
2022-07-31T23:56:46.257Z,5.88
